Hopewell, New York
Current Conditions -  °F | °C
As of 8:53 PM on Wednesday 17 Dec 2014 (Local Time) from KPOU Reporting Station
Overcast Overcast  
Wind Chill: 37°   Ceiling: 4300
Heat Index: 43°   Visibility: 10mi
Dew Point: 29°   Wind: 12mph
Humidity: 58%   Direction: 290°WNW
Pressure: 29.86"   Gusts: 21mph
Location:  41.562°N, 73.7865°W
Report Text: KPOU 180153Z AUTO 29010G18KT 10SM OVC043 06/M02 A2986 RMK AO2 SLP109 T00611017 TSNO
Loading
Personal Weather Stations






























Interactive Weather Map New forecast layout! Learn more

10-Day Weather Forecast

Advertisements
Track Severe Weather on mobile